createdAt,value
2018-10-06T00:01:54.636Z,15.67
2018-10-06T00:04:27.756Z,13.33
2018-10-06T00:07:09.911Z,15.33
2018-10-06T00:09:39.431Z,16.00
2018-10-06T00:12:10.865Z,14.67
2018-10-06T00:14:42.399Z,14.33
2018-10-06T00:17:29.413Z,18.00
2018-10-06T00:19:59.541Z,15.67
2018-10-06T00:22:29.474Z,13.67
2018-10-06T00:24:59.814Z,15.00
2018-10-06T00:27:37.496Z,15.67
2018-10-06T00:30:07.985Z,13.00
2018-10-06T00:32:38.361Z,13.00
2018-10-06T00:35:11.857Z,15.00
2018-10-06T00:37:41.476Z,13.00
2018-10-06T00:40:15.564Z,15.33
2018-10-06T00:42:45.411Z,13.67
2018-10-06T00:45:24.180Z,14.33
2018-10-06T00:47:57.942Z,13.00
2018-10-06T00:50:27.460Z,10.67
2018-10-06T00:52:58.505Z,16.00
2018-10-06T00:55:30.650Z,16.00
2018-10-06T00:58:00.949Z,15.00
2018-10-06T01:00:30.705Z,13.67
2018-10-06T01:03:03.875Z,15.67
2018-10-06T01:05:33.384Z,10.67
2018-10-06T01:08:03.240Z,15.00
2018-10-06T01:10:34.152Z,15.33
2018-10-06T01:13:05.156Z,18.00
2018-10-06T01:15:35.795Z,14.67
2018-10-06T01:18:08.313Z,14.33
2018-10-06T01:20:38.314Z,17.33
2018-10-06T01:23:07.836Z,15.00
2018-10-06T01:25:37.309Z,15.00
2018-10-06T01:28:08.551Z,16.00
2018-10-06T01:30:39.775Z,16.67
2018-10-06T01:33:11.031Z,16.00
2018-10-06T01:35:41.250Z,15.00
2018-10-06T01:38:16.083Z,15.00
2018-10-06T01:40:46.154Z,14.67
2018-10-06T01:43:16.889Z,17.33
2018-10-06T01:45:47.588Z,13.00
2018-10-06T01:48:17.217Z,13.00
2018-10-06T01:50:48.012Z,14.33
2018-10-06T01:53:20.228Z,13.67
2018-10-06T01:55:54.317Z,12.67
2018-10-06T01:58:23.975Z,13.00
2018-10-06T02:00:55.473Z,14.33
2018-10-06T02:03:25.496Z,13.67
2018-10-06T02:05:56.496Z,13.00
2018-10-06T02:08:27.597Z,12.00
2018-10-06T02:10:57.121Z,9.67
2018-10-06T02:13:28.429Z,12.00
2018-10-06T02:15:58.451Z,12.00
2018-10-06T02:18:31.582Z,15.00
2018-10-06T02:21:01.098Z,12.00
2018-10-06T02:23:30.644Z,13.67
2018-10-06T02:26:02.986Z,14.67
2018-10-06T02:28:33.218Z,12.00
2018-10-06T02:31:02.832Z,13.00
2018-10-06T02:33:32.420Z,13.67
2018-10-06T02:36:03.342Z,12.67
2018-10-06T02:38:33.359Z,13.33
2018-10-06T02:41:04.434Z,12.00
2018-10-06T02:43:35.590Z,12.00
2018-10-06T02:46:05.158Z,15.00
2018-10-06T02:51:19.172Z,16.67
2018-10-06T02:53:48.790Z,13.67
2018-10-06T02:56:18.444Z,13.00
2018-10-06T02:58:48.511Z,12.33
2018-10-06T03:01:18.068Z,15.33
2018-10-06T03:03:47.609Z,16.67
2018-10-06T03:06:17.032Z,17.67
2018-10-06T03:08:46.656Z,17.67
2018-10-06T03:11:16.665Z,15.00
2018-10-06T03:13:48.951Z,15.33
2018-10-06T03:16:18.561Z,14.00
2018-10-06T03:18:48.950Z,16.00
2018-10-06T03:21:18.720Z,14.33
2018-10-06T03:23:49.222Z,13.67
2018-10-06T03:26:19.960Z,14.33
2018-10-06T03:28:50.390Z,14.33
2018-10-06T03:31:21.066Z,13.00
2018-10-06T03:33:52.062Z,15.00
2018-10-06T03:36:25.255Z,12.33
2018-10-06T03:38:55.749Z,12.67
2018-10-06T03:41:25.238Z,12.33
2018-10-06T03:43:55.385Z,13.67
2018-10-06T03:46:25.264Z,13.67
2018-10-06T03:48:56.495Z,13.00
2018-10-06T03:51:27.488Z,11.67
2018-10-06T03:53:59.611Z,15.00
2018-10-06T03:56:31.010Z,14.67
2018-10-06T03:59:01.352Z,13.67
2018-10-06T04:01:31.482Z,13.67
2018-10-06T04:04:01.846Z,12.00
2018-10-06T04:06:41.858Z,14.33
2018-10-06T04:09:12.367Z,14.00
2018-10-06T04:11:41.922Z,14.00
2018-10-06T04:14:11.442Z,12.00
2018-10-06T04:16:42.389Z,12.00
2018-10-06T04:19:12.857Z,14.00
2018-10-06T04:21:49.651Z,14.00
2018-10-06T04:24:20.479Z,15.00
2018-10-06T04:26:52.427Z,12.00
2018-10-06T04:29:28.393Z,15.00
2018-10-06T04:32:05.679Z,22.00
2018-10-06T04:34:36.652Z,18.00
2018-10-06T04:37:07.097Z,17.00
2018-10-06T04:39:38.824Z,18.33
2018-10-06T04:42:09.532Z,14.00
2018-10-06T04:44:39.902Z,14.00
2018-10-06T04:47:13.260Z,16.33
2018-10-06T04:49:44.097Z,17.00
2018-10-06T04:52:15.593Z,19.00
2018-10-06T04:54:47.350Z,18.00
2018-10-06T04:57:17.559Z,29.67
2018-10-06T04:59:49.293Z,26.67
2018-10-06T05:02:20.007Z,20.33
2018-10-06T05:04:50.413Z,13.67
2018-10-06T05:07:20.093Z,15.00
2018-10-06T05:09:50.399Z,17.00
2018-10-06T05:12:22.723Z,17.00
2018-10-06T05:14:58.200Z,18.00
2018-10-06T05:17:28.423Z,15.00
2018-10-06T05:19:59.204Z,15.00
2018-10-06T05:22:30.520Z,17.00
2018-10-06T05:27:43.228Z,14.00
2018-10-06T05:30:15.848Z,10.67
2018-10-06T05:32:47.773Z,14.00
2018-10-06T05:35:19.459Z,14.00
2018-10-06T05:37:52.354Z,15.00
2018-10-06T05:40:24.044Z,12.00
2018-10-06T05:42:54.638Z,14.00
2018-10-06T05:45:25.829Z,14.33
2018-10-06T05:47:55.698Z,16.67
2018-10-06T05:50:25.353Z,17.00
2018-10-06T05:52:56.152Z,15.00
2018-10-06T05:55:28.344Z,17.33
2018-10-06T05:57:58.261Z,17.00
2018-10-06T06:00:27.984Z,14.00
2018-10-06T06:02:58.639Z,16.67
2018-10-06T06:05:28.645Z,15.00
2018-10-06T06:07:58.405Z,14.00
2018-10-06T06:10:27.983Z,16.33
2018-10-06T06:12:57.600Z,18.00
2018-10-06T06:15:27.980Z,15.00
2018-10-06T06:17:57.638Z,18.67
2018-10-06T06:20:27.167Z,15.00
2018-10-06T06:22:56.964Z,15.33
2018-10-06T06:25:26.512Z,16.67
2018-10-06T06:28:00.593Z,17.67
2018-10-06T06:30:30.098Z,16.00
2018-10-06T06:33:00.229Z,17.67
2018-10-06T06:35:31.298Z,17.33
2018-10-06T06:38:01.688Z,15.33
2018-10-06T06:40:32.371Z,18.00
2018-10-06T06:43:02.098Z,16.00
2018-10-06T06:45:32.999Z,17.00
2018-10-06T06:48:05.279Z,19.00
2018-10-06T06:50:34.873Z,17.67
2018-10-06T06:53:04.594Z,15.33
2018-10-06T06:55:34.243Z,19.33
2018-10-06T06:58:04.358Z,14.00
2018-10-06T07:00:37.062Z,17.67
2018-10-06T07:03:07.404Z,18.33
2018-10-06T07:05:37.790Z,19.67
2018-10-06T07:08:09.789Z,18.33
2018-10-06T07:10:54.965Z,21.00
2018-10-06T07:13:25.540Z,21.00
2018-10-06T07:16:01.524Z,21.67
2018-10-06T07:18:32.989Z,21.67
2018-10-06T07:21:04.644Z,22.67
2018-10-06T07:23:38.622Z,21.67
2018-10-06T07:26:09.228Z,18.67
2018-10-06T07:28:38.944Z,21.33
2018-10-06T07:31:11.892Z,25.00
2018-10-06T07:33:42.339Z,21.33
2018-10-06T07:36:12.765Z,23.00
2018-10-06T07:38:43.081Z,22.00
2018-10-06T07:41:12.748Z,21.00
2018-10-06T07:43:56.337Z,21.00
2018-10-06T07:46:30.515Z,23.67
2018-10-06T07:49:07.325Z,24.67
2018-10-06T07:51:37.579Z,25.67
2018-10-06T07:54:13.061Z,22.33
2018-10-06T07:56:43.852Z,24.25
2018-10-06T07:59:15.358Z,26.50
2018-10-06T08:01:47.277Z,24.00
2018-10-06T08:04:19.165Z,27.00
2018-10-06T08:06:52.221Z,26.25
2018-10-06T08:09:30.295Z,25.00
2018-10-06T08:12:01.830Z,26.67
2018-10-06T08:14:32.918Z,25.50
2018-10-06T08:17:02.610Z,27.00
2018-10-06T08:19:34.523Z,26.33
2018-10-06T08:22:04.349Z,27.00
2018-10-06T08:24:34.629Z,24.67
2018-10-06T08:27:04.895Z,26.67
2018-10-06T08:29:35.394Z,26.33
2018-10-06T08:32:06.949Z,30.33
2018-10-06T08:34:39.696Z,27.00
2018-10-06T08:37:11.442Z,28.00
2018-10-06T08:39:43.127Z,28.00
2018-10-06T08:42:13.181Z,29.67
2018-10-06T08:44:44.590Z,24.00
2018-10-06T08:47:14.214Z,28.00
2018-10-06T08:49:44.784Z,30.67
2018-10-06T08:52:14.577Z,27.67
2018-10-06T08:54:45.942Z,28.67
2018-10-06T08:57:15.699Z,28.00
2018-10-06T08:59:45.328Z,28.00
2018-10-06T09:02:19.540Z,27.00
2018-10-06T09:04:52.935Z,28.00
2018-10-06T09:07:25.410Z,27.67
2018-10-06T09:10:05.511Z,28.00
2018-10-06T09:12:37.431Z,27.67
2018-10-06T09:15:07.465Z,26.33
2018-10-06T09:17:37.083Z,27.67
2018-10-06T09:20:06.751Z,27.00
2018-10-06T09:22:37.078Z,26.67
2018-10-06T09:25:08.296Z,27.33
2018-10-06T09:27:38.205Z,28.00
2018-10-06T09:30:08.679Z,26.67
2018-10-06T09:32:41.676Z,26.67
2018-10-06T09:35:11.975Z,25.67
2018-10-06T09:37:43.107Z,24.67
2018-10-06T09:40:16.354Z,26.33
2018-10-06T09:42:50.045Z,26.00
2018-10-06T09:45:24.407Z,25.67
2018-10-06T09:47:55.834Z,26.00
2018-10-06T09:50:27.599Z,27.00
2018-10-06T09:52:57.749Z,27.00
2018-10-06T09:55:27.991Z,25.67
2018-10-06T09:58:00.206Z,25.67
2018-10-06T10:00:37.177Z,25.00
2018-10-06T10:03:15.754Z,23.25
2018-10-06T10:05:53.124Z,23.00
2018-10-06T10:08:23.081Z,23.33
2018-10-06T10:10:54.525Z,22.00
2018-10-06T10:13:25.326Z,21.00
2018-10-06T10:16:05.067Z,20.00
2018-10-06T10:18:42.330Z,23.00
2018-10-06T10:21:12.904Z,22.00
2018-10-06T10:23:44.952Z,23.00
2018-10-06T10:26:17.353Z,21.67
2018-10-06T10:28:49.145Z,17.33
2018-10-06T10:31:19.164Z,19.33
2018-10-06T10:33:49.462Z,18.67
2018-10-06T10:36:24.907Z,20.00
2018-10-06T10:39:03.410Z,18.00
2018-10-06T10:41:36.617Z,21.33
2018-10-06T10:44:08.895Z,20.00
2018-10-06T10:46:39.257Z,20.00
2018-10-06T10:49:09.958Z,19.67
2018-10-06T10:51:39.506Z,17.33
2018-10-06T10:54:17.387Z,17.33
2018-10-06T10:56:57.345Z,18.33
2018-10-06T10:59:31.118Z,15.67
2018-10-06T11:02:07.284Z,16.67
2018-10-06T11:04:38.487Z,16.00
2018-10-06T11:07:08.596Z,14.67
2018-10-06T11:09:38.692Z,15.67
2018-10-06T11:12:11.277Z,15.33
2018-10-06T11:14:41.940Z,17.00
2018-10-06T11:17:13.962Z,15.00
2018-10-06T11:19:43.852Z,17.00
2018-10-06T11:22:20.407Z,16.33
2018-10-06T11:24:54.931Z,17.00
2018-10-06T11:27:27.244Z,15.33
2018-10-06T11:29:57.788Z,14.33
2018-10-06T11:32:28.992Z,17.67
2018-10-06T11:34:59.822Z,15.67
2018-10-06T11:37:45.566Z,16.67
2018-10-06T11:40:17.202Z,17.00
2018-10-06T11:42:47.066Z,16.67
2018-10-06T11:45:16.851Z,15.67
2018-10-06T11:47:48.866Z,16.33
2018-10-06T11:50:25.532Z,18.00
2018-10-06T11:52:55.637Z,15.00
2018-10-06T11:55:25.773Z,17.33
2018-10-06T11:57:55.440Z,14.33
2018-10-06T12:00:26.272Z,17.67
2018-10-06T12:03:00.162Z,15.67
2018-10-06T12:05:31.828Z,16.33
2018-10-06T12:08:02.522Z,16.33
2018-10-06T12:10:32.138Z,15.00
2018-10-06T12:13:02.395Z,14.33
2018-10-06T12:15:33.486Z,15.00
2018-10-06T12:18:05.241Z,15.33
2018-10-06T12:20:38.920Z,16.00
2018-10-06T12:23:09.779Z,17.33
2018-10-06T12:25:39.508Z,14.67
2018-10-06T12:28:10.652Z,15.33
2018-10-06T12:30:41.864Z,18.00
2018-10-06T12:33:12.382Z,16.67
2018-10-06T12:35:43.313Z,17.00
2018-10-06T12:38:14.101Z,16.00
2018-10-06T12:40:44.401Z,16.00
2018-10-06T12:43:15.639Z,16.00
2018-10-06T12:45:45.372Z,15.00
2018-10-06T12:48:15.915Z,16.67
2018-10-06T12:50:46.558Z,17.00
2018-10-06T12:53:16.718Z,17.67
2018-10-06T12:55:48.483Z,14.67
2018-10-06T12:58:18.257Z,16.00
2018-10-06T13:00:51.037Z,16.00
2018-10-06T13:03:20.659Z,16.00
2018-10-06T13:05:50.309Z,14.67
2018-10-06T13:08:21.191Z,17.00
2018-10-06T13:10:50.768Z,14.00
2018-10-06T13:13:21.708Z,16.67
2018-10-06T13:15:52.266Z,13.67
2018-10-06T13:18:22.614Z,13.33
2018-10-06T13:20:52.857Z,14.33
2018-10-06T13:23:24.590Z,15.33
2018-10-06T13:25:57.706Z,13.33
2018-10-06T13:28:33.521Z,13.33
2018-10-06T13:31:03.288Z,16.33
2018-10-06T13:33:32.904Z,12.33
2018-10-06T13:36:05.848Z,12.67
2018-10-06T13:38:35.507Z,11.33
2018-10-06T13:41:05.243Z,13.00
2018-10-06T13:43:34.968Z,15.00
2018-10-06T13:46:05.351Z,12.00
2018-10-06T13:48:36.415Z,13.67
2018-10-06T13:51:06.937Z,13.00
2018-10-06T13:53:37.604Z,14.00
2018-10-06T13:56:07.253Z,13.33
2018-10-06T13:58:36.877Z,13.67
2018-10-06T14:01:07.435Z,13.00
2018-10-06T14:06:07.385Z,13.33
2018-10-06T14:08:37.708Z,13.33
2018-10-06T14:11:10.343Z,13.00
2018-10-06T14:13:40.935Z,13.67
2018-10-06T14:16:14.358Z,13.00
2018-10-06T14:18:45.472Z,15.00
2018-10-06T14:21:15.189Z,14.33
2018-10-06T14:23:44.688Z,12.00
2018-10-06T14:26:14.811Z,15.00
2018-10-06T14:28:48.706Z,14.67
2018-10-06T14:31:18.403Z,16.00
2018-10-06T14:33:49.291Z,14.67
2018-10-06T14:36:21.147Z,13.67
2018-10-06T14:38:52.951Z,14.00
2018-10-06T14:41:25.224Z,15.00
2018-10-06T14:43:55.443Z,15.00
2018-10-06T14:46:26.899Z,15.33
2018-10-06T14:48:58.764Z,14.33
2018-10-06T14:51:32.511Z,16.00
2018-10-06T14:54:04.302Z,14.67
2018-10-06T14:56:36.384Z,16.00
2018-10-06T14:59:07.301Z,16.00
2018-10-06T15:01:37.992Z,14.67
2018-10-06T15:04:09.799Z,15.00
2018-10-06T15:06:43.223Z,15.33
2018-10-06T15:09:13.853Z,15.67
2018-10-06T15:11:45.133Z,16.33
2018-10-06T15:14:17.374Z,15.67
2018-10-06T15:16:47.383Z,14.67
2018-10-06T15:19:18.229Z,16.00
2018-10-06T15:21:47.983Z,16.33
2018-10-06T15:24:21.914Z,17.33
2018-10-06T15:26:52.536Z,15.33
2018-10-06T15:29:23.056Z,14.67
2018-10-06T15:31:54.654Z,15.67
2018-10-06T15:34:24.320Z,11.67
2018-10-06T15:36:54.289Z,11.67
2018-10-06T15:39:24.868Z,10.00
2018-10-06T15:41:55.048Z,12.00
2018-10-06T15:44:32.689Z,12.00
2018-10-06T15:47:05.481Z,11.00
2018-10-06T15:49:36.071Z,13.67
2018-10-06T15:52:08.585Z,13.67
2018-10-06T15:54:38.428Z,13.67
2018-10-06T15:57:15.274Z,13.67
2018-10-06T15:59:45.323Z,13.67
2018-10-06T16:02:15.623Z,12.33
2018-10-06T16:04:45.431Z,12.33
2018-10-06T16:07:17.651Z,13.67
2018-10-06T16:09:52.578Z,11.33
2018-10-06T16:12:23.316Z,11.00
2018-10-06T16:14:53.492Z,13.33
2018-10-06T16:17:27.114Z,12.33
2018-10-06T16:19:59.777Z,14.67
2018-10-06T16:22:30.458Z,17.00
2018-10-06T16:25:04.603Z,18.67
2018-10-06T16:27:37.707Z,17.00
2018-10-06T16:30:12.586Z,19.25
2018-10-06T16:32:44.560Z,17.33
2018-10-06T16:35:14.281Z,17.67
2018-10-06T16:37:45.524Z,15.00
2018-10-06T16:40:16.111Z,15.00
2018-10-06T16:42:46.369Z,11.00
2018-10-06T16:45:16.943Z,14.00
2018-10-06T16:47:46.755Z,14.00
2018-10-06T16:50:17.667Z,12.00
2018-10-06T16:52:47.774Z,13.67
2018-10-06T16:55:19.525Z,13.33
2018-10-06T16:57:49.401Z,13.67
2018-10-06T17:00:21.982Z,13.67
2018-10-06T17:02:52.696Z,13.67
2018-10-06T17:05:22.455Z,13.00
2018-10-06T17:07:52.150Z,14.33
2018-10-06T17:10:23.308Z,14.33
2018-10-06T17:12:54.779Z,12.67
2018-10-06T17:15:26.318Z,13.67
2018-10-06T17:17:57.807Z,14.67
2018-10-06T17:20:29.390Z,14.00
2018-10-06T17:22:59.889Z,14.00
2018-10-06T17:25:29.514Z,14.00
2018-10-06T17:28:00.221Z,17.33
2018-10-06T17:30:30.440Z,16.67
2018-10-06T17:33:00.970Z,13.33
2018-10-06T17:35:31.899Z,14.00
2018-10-06T17:38:01.538Z,14.00
2018-10-06T17:40:31.879Z,19.33
2018-10-06T17:43:02.677Z,26.00
2018-10-06T17:45:32.622Z,21.00
2018-10-06T17:48:03.196Z,21.00
2018-10-06T17:50:36.078Z,20.00
2018-10-06T17:53:06.627Z,21.67
2018-10-06T17:55:36.255Z,20.00
2018-10-06T17:58:05.923Z,16.67
2018-10-06T18:00:39.345Z,18.67
2018-10-06T18:03:11.728Z,19.00
2018-10-06T18:05:45.316Z,18.67
2018-10-06T18:08:19.677Z,19.33
2018-10-06T18:10:51.255Z,22.00
2018-10-06T18:13:23.113Z,18.33
2018-10-06T18:15:52.871Z,19.33
2018-10-06T18:18:22.610Z,20.67
2018-10-06T18:20:53.156Z,18.00
2018-10-06T18:23:23.463Z,17.33
2018-10-06T18:25:53.850Z,22.33
2018-10-06T18:28:26.509Z,17.00
2018-10-06T18:30:56.658Z,17.67
2018-10-06T18:33:29.126Z,19.33
2018-10-06T18:35:58.757Z,19.00
2018-10-06T18:38:30.677Z,17.33
2018-10-06T18:41:01.882Z,16.67
2018-10-06T18:43:31.692Z,18.33
2018-10-06T18:46:02.817Z,16.67
2018-10-06T18:48:34.420Z,17.00
2018-10-06T18:51:08.648Z,16.00
2018-10-06T18:53:40.359Z,15.67
2018-10-06T18:56:14.243Z,15.00
2018-10-06T18:58:45.390Z,15.00
2018-10-06T19:01:15.904Z,16.33
2018-10-06T19:03:46.095Z,18.00
2018-10-06T19:06:16.643Z,16.00
2018-10-06T19:08:46.742Z,15.33
2018-10-06T19:11:17.685Z,20.00
2018-10-06T19:13:48.146Z,13.67
2018-10-06T19:16:19.724Z,16.00
2018-10-06T19:18:52.172Z,15.00
2018-10-06T19:21:21.877Z,15.33
2018-10-06T19:23:53.491Z,15.00
2018-10-06T19:26:23.257Z,14.67
2018-10-06T19:28:54.944Z,14.67
2018-10-06T19:31:28.456Z,15.00
2018-10-06T19:34:02.152Z,14.67
2018-10-06T19:36:34.442Z,15.33
2018-10-06T19:39:05.484Z,15.33
2018-10-06T19:41:36.530Z,15.67
2018-10-06T19:44:08.656Z,14.33
2018-10-06T19:46:43.832Z,15.67
2018-10-06T19:49:15.716Z,15.33
2018-10-06T19:51:48.037Z,14.33
2018-10-06T19:54:21.264Z,15.00
2018-10-06T19:56:54.479Z,15.33
2018-10-06T19:59:25.212Z,14.00
2018-10-06T20:02:05.274Z,15.00
2018-10-06T20:04:36.660Z,15.33
2018-10-06T20:07:07.407Z,15.33
2018-10-06T20:09:39.858Z,17.67
2018-10-06T20:12:10.479Z,16.67
2018-10-06T20:14:42.527Z,17.67
2018-10-06T20:17:13.592Z,15.00
2018-10-06T20:19:44.609Z,16.00
2018-10-06T20:22:14.307Z,17.00
2018-10-06T20:24:46.596Z,16.00
2018-10-06T20:27:18.308Z,16.00
2018-10-06T20:29:48.906Z,17.67
2018-10-06T20:32:22.046Z,18.00
2018-10-06T20:34:53.308Z,16.67
2018-10-06T20:37:24.257Z,18.33
2018-10-06T20:39:54.291Z,18.00
2018-10-06T20:42:25.423Z,18.67
2018-10-06T20:44:56.000Z,18.67
2018-10-06T20:47:28.288Z,16.67
2018-10-06T20:49:58.333Z,18.00
2018-10-06T20:52:29.232Z,19.00
2018-10-06T20:55:01.194Z,19.67
2018-10-06T20:57:31.874Z,20.00
2018-10-06T21:00:03.856Z,19.00
2018-10-06T21:02:35.631Z,18.33
2018-10-06T21:05:05.365Z,19.00
2018-10-06T21:07:36.770Z,20.67
2018-10-06T21:10:08.013Z,17.67
2018-10-06T21:12:37.662Z,21.67
2018-10-06T21:15:08.295Z,19.33
2018-10-06T21:17:38.114Z,19.33
2018-10-06T21:20:08.722Z,21.67
2018-10-06T21:22:38.315Z,19.00
2018-10-06T21:25:09.241Z,21.67
2018-10-06T21:27:41.437Z,17.33
2018-10-06T21:30:14.406Z,18.33
2018-10-06T21:32:44.946Z,19.33
2018-10-06T21:35:14.747Z,19.67
2018-10-06T21:37:45.313Z,21.33
2018-10-06T21:40:16.007Z,17.33
2018-10-06T21:42:46.649Z,19.67
2018-10-06T21:45:19.311Z,17.00
2018-10-06T21:47:50.809Z,19.67
2018-10-06T21:50:20.958Z,18.00
2018-10-06T21:52:51.393Z,20.00
2018-10-06T21:55:24.560Z,17.00
2018-10-06T21:57:56.037Z,20.00
2018-10-06T22:00:26.982Z,16.00
2018-10-06T22:02:57.264Z,18.67
2018-10-06T22:05:27.894Z,18.67
2018-10-06T22:07:58.829Z,20.00
2018-10-06T22:10:30.695Z,19.00
2018-10-06T22:13:00.379Z,17.67
2018-10-06T22:15:31.632Z,16.00
2018-10-06T22:18:03.990Z,18.33
2018-10-06T22:20:33.737Z,18.00
2018-10-06T22:23:06.828Z,18.67
2018-10-06T22:25:36.443Z,16.00
2018-10-06T22:28:06.148Z,17.33
2018-10-06T22:30:36.680Z,16.67
2018-10-06T22:33:06.276Z,15.00
2018-10-06T22:35:37.272Z,12.00
2018-10-06T22:38:12.638Z,13.00
2018-10-06T22:40:42.377Z,13.67
2018-10-06T22:43:11.968Z,12.00
2018-10-06T22:45:41.695Z,12.00
2018-10-06T22:48:11.201Z,11.67
2018-10-06T22:50:42.811Z,12.00
2018-10-06T22:53:12.429Z,11.67
2018-10-06T22:55:46.769Z,12.00
2018-10-06T22:58:17.592Z,9.67
2018-10-06T23:00:50.420Z,12.33
2018-10-06T23:03:20.166Z,14.67
2018-10-06T23:05:49.828Z,13.67
2018-10-06T23:08:20.115Z,13.67
2018-10-06T23:10:49.843Z,13.67
2018-10-06T23:13:27.283Z,15.00
2018-10-06T23:15:59.697Z,12.00
2018-10-06T23:18:29.607Z,10.67
2018-10-06T23:21:01.971Z,12.00
2018-10-06T23:23:39.128Z,11.00
2018-10-06T23:26:08.690Z,13.00
2018-10-06T23:28:38.491Z,13.67
2018-10-06T23:31:08.023Z,13.00
2018-10-06T23:33:37.598Z,10.33
2018-10-06T23:36:15.804Z,12.33
2018-10-06T23:38:46.660Z,11.00
2018-10-06T23:41:16.279Z,12.00
2018-10-06T23:43:45.811Z,11.00
2018-10-06T23:46:15.432Z,11.00
2018-10-06T23:48:45.028Z,11.33
2018-10-06T23:51:14.513Z,11.00
2018-10-06T23:53:44.219Z,11.00
2018-10-06T23:56:13.781Z,10.33
2018-10-06T23:58:45.004Z,11.00
